createdAt,value
2019-02-07T00:00:22.953Z,35.07
2019-02-07T00:02:50.152Z,34.77
2019-02-07T00:05:17.373Z,35.90
2019-02-07T00:07:44.612Z,35.53
2019-02-07T00:10:18.646Z,34.23
2019-02-07T00:12:46.006Z,35.23
2019-02-07T00:15:14.926Z,35.63
2019-02-07T00:17:41.992Z,32.80
2019-02-07T00:20:16.706Z,33.07
2019-02-07T00:22:43.847Z,33.90
2019-02-07T00:25:10.966Z,31.70
2019-02-07T00:27:38.126Z,33.30
2019-02-07T00:30:11.046Z,34.60
2019-02-07T00:32:38.170Z,34.03
2019-02-07T00:35:09.146Z,33.37
2019-02-07T00:37:36.307Z,32.43
2019-02-07T00:40:08.807Z,34.03
2019-02-07T00:42:35.967Z,32.93
2019-02-07T00:45:08.029Z,32.83
2019-02-07T00:47:35.167Z,34.53
2019-02-07T00:50:04.368Z,33.47
2019-02-07T00:52:31.567Z,31.30
2019-02-07T00:54:58.693Z,33.17
2019-02-07T00:57:25.828Z,34.07
2019-02-07T00:59:53.548Z,32.33
2019-02-07T01:02:20.687Z,32.07
2019-02-07T01:04:47.968Z,32.53
2019-02-07T01:07:15.147Z,33.67
2019-02-07T01:09:42.507Z,33.20
2019-02-07T01:12:09.569Z,34.03
2019-02-07T01:14:36.647Z,32.63
2019-02-07T01:17:04.167Z,34.93
2019-02-07T01:19:32.428Z,33.10
2019-02-07T01:22:00.068Z,33.87
2019-02-07T01:24:27.148Z,32.70
2019-02-07T01:26:54.307Z,32.73
2019-02-07T01:29:21.468Z,35.23
2019-02-07T01:31:48.628Z,33.63
2019-02-07T01:34:15.727Z,32.27
2019-02-07T01:36:43.382Z,34.20
2019-02-07T01:39:10.668Z,34.67
2019-02-07T01:41:37.827Z,35.63
2019-02-07T01:44:05.027Z,35.03
2019-02-07T01:46:32.227Z,32.70
2019-02-07T01:48:59.387Z,34.90
2019-02-07T01:51:27.007Z,35.33
2019-02-07T01:53:54.627Z,35.37
2019-02-07T01:56:21.847Z,34.33
2019-02-07T01:58:48.946Z,33.23
2019-02-07T02:01:16.077Z,34.30
2019-02-07T02:03:43.187Z,34.00
2019-02-07T02:06:10.328Z,34.60
2019-02-07T02:08:37.447Z,37.10
2019-02-07T02:11:04.693Z,34.40
2019-02-07T02:13:32.807Z,34.80
2019-02-07T02:16:00.027Z,38.27
2019-02-07T02:18:27.207Z,37.23
2019-02-07T02:20:54.534Z,36.13
2019-02-07T02:23:21.929Z,37.27
2019-02-07T02:25:49.067Z,37.47
2019-02-07T02:28:16.627Z,37.43
2019-02-07T02:30:44.255Z,36.67
2019-02-07T02:33:11.427Z,37.20
2019-02-07T02:35:38.547Z,36.57
2019-02-07T02:38:05.687Z,38.37
2019-02-07T02:40:32.891Z,38.23
2019-02-07T02:43:00.027Z,37.33
2019-02-07T02:45:37.145Z,37.13
2019-02-07T02:47:56.388Z,36.23
2019-02-07T02:50:24.852Z,35.50
2019-02-07T02:52:52.127Z,37.13
2019-02-07T02:55:36.108Z,34.57
2019-02-07T02:58:04.331Z,35.47
2019-02-07T03:00:36.608Z,35.63
2019-02-07T03:03:15.633Z,34.13
2019-02-07T03:05:50.971Z,36.37
2019-02-07T03:08:36.727Z,36.17
2019-02-07T03:11:18.253Z,35.23
2019-02-07T03:13:53.629Z,34.80
2019-02-07T03:16:25.349Z,34.17
2019-02-07T03:18:57.428Z,34.80
2019-02-07T03:21:32.320Z,35.97
2019-02-07T03:24:06.873Z,34.63
2019-02-07T03:26:52.827Z,35.20
2019-02-07T03:29:25.070Z,34.97
2019-02-07T03:31:53.973Z,33.03
2019-02-07T03:34:35.029Z,35.10
2019-02-07T03:37:20.389Z,33.90
2019-02-07T03:40:05.857Z,34.23
2019-02-07T03:45:41.447Z,33.53
2019-02-07T03:48:13.367Z,34.37
2019-02-07T03:50:47.909Z,33.27
2019-02-07T03:56:10.828Z,34.23
2019-02-07T03:58:48.548Z,35.03
2019-02-07T04:01:29.292Z,34.73
2019-02-07T04:04:07.008Z,35.17
2019-02-07T04:06:47.727Z,34.40
2019-02-07T04:09:16.640Z,35.40
2019-02-07T04:11:46.147Z,33.77
2019-02-07T04:14:30.327Z,34.80
2019-02-07T04:17:11.500Z,31.87
2019-02-07T04:19:52.380Z,32.57
2019-02-07T04:22:33.241Z,34.30
2019-02-07T04:25:02.178Z,34.30
2019-02-07T04:27:40.281Z,33.23
2019-02-07T04:30:19.578Z,34.40
2019-02-07T04:33:04.863Z,33.53
2019-02-07T04:35:39.903Z,33.80
2019-02-07T04:38:15.259Z,34.27
2019-02-07T04:40:50.320Z,33.80
2019-02-07T04:43:24.979Z,34.47
2019-02-07T04:46:09.037Z,34.87
2019-02-07T04:48:43.618Z,38.03
2019-02-07T04:51:15.322Z,35.33
2019-02-07T04:53:53.460Z,34.47
2019-02-07T04:56:31.365Z,32.00
2019-02-07T04:59:03.145Z,33.97
2019-02-07T05:01:49.079Z,32.67
2019-02-07T05:04:45.239Z,33.00
2019-02-07T05:07:26.457Z,33.80
2019-02-07T05:09:55.420Z,33.23
2019-02-07T05:12:33.417Z,32.70
2019-02-07T05:15:02.370Z,32.50
2019-02-07T05:17:37.336Z,33.57
2019-02-07T05:20:10.150Z,32.00
2019-02-07T05:22:44.524Z,33.83
2019-02-07T05:25:17.529Z,31.93
2019-02-07T05:27:55.571Z,30.33
2019-02-07T05:30:30.369Z,31.37
2019-02-07T05:33:15.818Z,30.73
2019-02-07T05:36:01.463Z,30.23
2019-02-07T05:38:36.370Z,30.53
2019-02-07T05:41:08.231Z,30.93
2019-02-07T05:43:43.330Z,30.63
2019-02-07T05:46:15.308Z,29.17
2019-02-07T05:49:00.830Z,30.67
2019-02-07T05:51:48.154Z,32.23
2019-02-07T05:54:19.969Z,31.73
2019-02-07T05:56:55.193Z,30.67
2019-02-07T05:59:40.549Z,31.53
2019-02-07T06:02:21.196Z,31.73
2019-02-07T06:04:50.192Z,32.07
2019-02-07T06:10:31.568Z,32.07
2019-02-07T06:13:17.030Z,30.97
2019-02-07T06:15:49.017Z,32.57
2019-02-07T06:18:17.916Z,31.33
2019-02-07T06:21:02.157Z,32.57
2019-02-07T06:23:40.042Z,33.03
2019-02-07T06:26:09.337Z,33.50
2019-02-07T06:28:50.541Z,31.27
2019-02-07T06:31:28.296Z,33.37
2019-02-07T06:34:12.317Z,33.83
2019-02-07T06:36:47.112Z,32.97
2019-02-07T06:39:31.324Z,32.77
2019-02-07T06:42:02.978Z,31.27
2019-02-07T06:44:48.978Z,31.00
2019-02-07T06:47:17.798Z,29.87
2019-02-07T06:50:01.618Z,31.90
2019-02-07T06:52:39.761Z,32.07
2019-02-07T06:55:24.106Z,32.83
2019-02-07T06:57:59.098Z,33.17
2019-02-07T07:00:28.063Z,33.63
2019-02-07T07:03:02.820Z,32.90
2019-02-07T07:05:46.807Z,32.93
2019-02-07T07:08:32.210Z,33.70
2019-02-07T07:11:16.390Z,35.53
2019-02-07T07:13:51.035Z,34.83
2019-02-07T07:16:38.150Z,34.33
2019-02-07T07:19:22.168Z,33.13
2019-02-07T07:21:59.790Z,35.87
2019-02-07T07:24:44.050Z,35.33
2019-02-07T07:27:13.008Z,34.80
2019-02-07T07:32:36.990Z,34.80
2019-02-07T07:35:09.410Z,35.13
2019-02-07T07:37:39.177Z,34.27
2019-02-07T07:40:27.610Z,34.50
2019-02-07T07:43:05.570Z,34.33
2019-02-07T07:45:49.449Z,35.40
2019-02-07T07:48:30.270Z,35.77
2019-02-07T07:50:59.710Z,35.47
2019-02-07T07:53:28.652Z,34.93
2019-02-07T07:56:12.789Z,35.27
2019-02-07T07:58:47.998Z,34.70
2019-02-07T08:01:33.531Z,34.43
2019-02-07T08:04:05.510Z,33.67
2019-02-07T08:06:50.570Z,34.43
2019-02-07T08:09:28.829Z,33.33
2019-02-07T08:12:00.693Z,34.77
2019-02-07T08:14:29.811Z,34.53
2019-02-07T08:17:02.056Z,32.97
2019-02-07T08:19:33.591Z,34.20
2019-02-07T08:22:11.211Z,33.53
2019-02-07T08:24:46.011Z,34.70
2019-02-07T08:27:26.976Z,34.03
2019-02-07T08:30:05.410Z,32.60
2019-02-07T08:32:51.490Z,33.37
2019-02-07T08:35:23.234Z,31.23
2019-02-07T08:37:58.190Z,33.07
2019-02-07T08:40:29.751Z,33.07
2019-02-07T08:42:58.671Z,34.03
2019-02-07T08:48:34.170Z,35.50
2019-02-07T08:51:18.031Z,34.30
2019-02-07T08:53:46.910Z,33.33
2019-02-07T08:56:21.930Z,33.00
2019-02-07T08:58:57.052Z,33.93
2019-02-07T09:01:42.593Z,34.13
2019-02-07T09:04:20.290Z,33.83
2019-02-07T09:07:05.570Z,33.63
2019-02-07T09:09:34.471Z,32.40
2019-02-07T09:12:06.614Z,33.00
2019-02-07T09:14:41.595Z,31.83
2019-02-07T09:17:22.490Z,33.77
2019-02-07T09:19:56.951Z,33.43
2019-02-07T09:22:41.953Z,34.43
2019-02-07T09:25:17.029Z,33.03
2019-02-07T09:27:45.879Z,32.83
2019-02-07T09:30:28.490Z,33.93
2019-02-07T09:33:00.292Z,31.30
2019-02-07T09:35:38.151Z,31.93
2019-02-07T09:41:13.211Z,31.93
2019-02-07T09:43:42.070Z,33.23
2019-02-07T09:46:29.189Z,32.10
2019-02-07T09:49:03.894Z,33.20
2019-02-07T09:51:49.591Z,32.70
2019-02-07T09:54:27.552Z,33.27
2019-02-07T09:56:59.451Z,32.87
2019-02-07T09:59:43.871Z,32.70
2019-02-07T10:02:31.255Z,32.60
2019-02-07T10:05:03.152Z,32.80
2019-02-07T10:07:35.276Z,30.67
2019-02-07T10:10:16.251Z,33.17
2019-02-07T10:12:45.153Z,33.10
2019-02-07T10:15:17.513Z,33.97
2019-02-07T10:17:58.391Z,33.77
2019-02-07T10:20:43.472Z,32.37
2019-02-07T10:23:24.352Z,32.57
2019-02-07T10:25:53.873Z,32.17
2019-02-07T10:28:28.873Z,33.37
2019-02-07T10:31:06.915Z,31.17
2019-02-07T10:33:44.852Z,32.93
2019-02-07T10:39:02.069Z,32.27
2019-02-07T10:41:47.670Z,31.23
2019-02-07T10:44:32.930Z,32.97
2019-02-07T10:47:19.792Z,31.50
2019-02-07T10:50:06.809Z,31.47
2019-02-07T10:52:51.850Z,33.17
2019-02-07T10:55:20.749Z,31.30
2019-02-07T10:57:55.571Z,31.73
2019-02-07T11:00:37.489Z,32.27
2019-02-07T11:03:22.549Z,32.63
2019-02-07T11:06:00.165Z,33.53
2019-02-07T11:08:29.064Z,33.80
2019-02-07T11:10:57.944Z,32.27
2019-02-07T11:13:41.946Z,31.83
2019-02-07T11:16:16.667Z,32.53
2019-02-07T11:19:01.788Z,32.53
2019-02-07T11:21:48.625Z,32.50
2019-02-07T11:24:33.864Z,31.77
2019-02-07T11:27:19.546Z,31.50
2019-02-07T11:29:54.284Z,31.80
2019-02-07T11:32:30.073Z,30.70
2019-02-07T11:35:11.504Z,31.80
2019-02-07T11:37:55.705Z,30.67
2019-02-07T11:40:30.925Z,32.27
2019-02-07T11:43:02.376Z,30.87
2019-02-07T11:45:31.305Z,32.27
2019-02-07T11:48:18.271Z,33.80
2019-02-07T11:50:56.594Z,31.17
2019-02-07T11:53:31.072Z,32.13
2019-02-07T11:56:02.710Z,31.70
2019-02-07T11:58:48.349Z,32.70
2019-02-07T12:01:33.813Z,32.23
2019-02-07T12:04:08.351Z,33.43
2019-02-07T12:06:37.250Z,32.20
2019-02-07T12:09:09.970Z,32.00
2019-02-07T12:11:55.230Z,32.20
2019-02-07T12:14:35.974Z,31.00
2019-02-07T12:17:23.027Z,30.73
2019-02-07T12:20:10.029Z,31.87
2019-02-07T12:22:50.951Z,32.27
2019-02-07T12:25:31.870Z,31.70
2019-02-07T12:28:00.730Z,32.93
2019-02-07T12:30:35.930Z,34.40
2019-02-07T12:33:21.302Z,32.77
2019-02-07T12:35:56.131Z,32.00
2019-02-07T12:38:25.050Z,29.90
2019-02-07T12:41:10.533Z,31.63
2019-02-07T12:43:48.225Z,31.23
2019-02-07T12:46:20.230Z,32.13
2019-02-07T12:48:50.592Z,31.40
2019-02-07T12:51:28.730Z,30.53
2019-02-07T12:54:06.470Z,30.77
2019-02-07T12:56:35.415Z,30.13
2019-02-07T12:59:07.611Z,31.20
2019-02-07T13:01:36.570Z,30.60
2019-02-07T13:04:18.970Z,31.50
2019-02-07T13:07:06.801Z,31.90
2019-02-07T13:09:35.790Z,30.90
2019-02-07T13:12:09.300Z,31.87
2019-02-07T13:14:50.237Z,32.03
2019-02-07T13:17:31.224Z,31.27
2019-02-07T13:20:09.241Z,30.47
2019-02-07T13:22:38.290Z,31.83
2019-02-07T13:25:09.987Z,32.83
2019-02-07T13:27:41.833Z,31.57
2019-02-07T13:30:30.819Z,33.27
2019-02-07T13:33:02.867Z,31.30
2019-02-07T13:35:31.844Z,33.03
2019-02-07T13:38:04.039Z,32.43
2019-02-07T13:40:35.753Z,33.17
2019-02-07T13:43:14.206Z,33.67
2019-02-07T13:46:01.049Z,32.97
2019-02-07T13:48:46.631Z,33.93
2019-02-07T13:51:33.750Z,32.53
2019-02-07T13:54:19.312Z,33.60
2019-02-07T13:56:53.889Z,32.40
2019-02-07T13:59:22.802Z,33.27
2019-02-07T14:01:57.792Z,35.00
2019-02-07T14:04:32.509Z,34.33
2019-02-07T14:07:17.809Z,33.83
2019-02-07T14:09:46.670Z,34.47
2019-02-07T14:12:15.835Z,33.47
2019-02-07T14:14:53.789Z,34.07
2019-02-07T14:17:39.468Z,34.03
2019-02-07T14:20:16.789Z,34.83
2019-02-07T14:22:51.695Z,32.47
2019-02-07T14:25:23.429Z,32.70
2019-02-07T14:27:55.469Z,34.00
2019-02-07T14:30:27.191Z,32.77
2019-02-07T14:32:59.210Z,32.47
2019-02-07T14:35:34.130Z,31.77
2019-02-07T14:38:11.617Z,32.80
2019-02-07T14:40:49.093Z,32.53
2019-02-07T14:43:18.098Z,32.83
2019-02-07T14:45:53.270Z,33.53
2019-02-07T14:48:23.914Z,32.40
2019-02-07T14:50:51.530Z,31.83
2019-02-07T14:53:18.538Z,34.00
2019-02-07T14:55:45.699Z,33.93
2019-02-07T14:58:12.856Z,32.53
2019-02-07T15:00:39.998Z,32.07
2019-02-07T15:03:07.116Z,31.87
2019-02-07T15:05:34.772Z,33.73
2019-02-07T15:08:02.378Z,32.83
2019-02-07T15:10:29.497Z,33.10
2019-02-07T15:12:56.599Z,33.07
2019-02-07T15:15:23.593Z,33.90
2019-02-07T15:17:50.759Z,34.63
2019-02-07T15:20:25.691Z,33.67
2019-02-07T15:22:47.483Z,32.37
2019-02-07T15:25:15.050Z,33.23
2019-02-07T15:27:42.154Z,32.33
2019-02-07T15:30:17.539Z,31.90
2019-02-07T15:32:44.859Z,31.83
2019-02-07T15:35:23.498Z,35.43
2019-02-07T15:37:50.712Z,32.80
2019-02-07T15:40:21.884Z,34.60
2019-02-07T15:42:49.165Z,33.73
2019-02-07T15:45:17.361Z,33.80
